Time;durP1;ratioP1;P1;durP2;ratioP2;P2;SDS_P1;SDS_P2;PMS_P1;PMS_P2;Temp;Humidity;BMP_temperature;BMP_pressure;BME280_temperature;BME280_humidity;BME280_pressure;Samples;Min_cycle;Max_cycle;Signal;HPM_P1;HPM_P2
2023/03/27 00:01:01;;;;;;;6.35;1.42;;;;;;;2.84;70.70;100256.28;4957143;28;20079;-88
2023/03/27 00:03:31;;;;;;;4.55;0.55;;;;;;;2.71;70.41;100255.25;4973187;28;20153;-88
2023/03/27 00:06:15;;;;;;;8.60;0.63;;;;;;;2.53;70.56;100257.47;4972461;28;20058;-87
2023/03/27 00:08:46;;;;;;;7.40;0.80;;;;;;;2.29;71.35;100259.69;4954274;28;20101;-88
2023/03/27 00:11:13;;;;;;;2.28;0.50;;;;;;;2.12;72.12;100268.81;4943698;28;20085;-85
2023/03/27 00:13:42;;;;;;;4.53;1.00;;;;;;;2.00;73.67;100271.16;4972475;28;20030;-86
2023/03/27 00:16:10;;;;;;;8.27;0.95;;;;;;;1.89;73.37;100279.56;4925983;28;20046;-84
2023/03/27 00:18:38;;;;;;;4.63;0.80;;;;;;;1.79;73.25;100275.03;4942490;28;20043;-85
2023/03/27 00:21:05;;;;;;;4.72;1.02;;;;;;;1.72;74.00;100286.06;4957427;28;20058;-86
2023/03/27 00:23:32;;;;;;;6.40;1.05;;;;;;;1.71;74.65;100290.38;4936255;28;20073;-86
2023/03/27 00:25:59;;;;;;;5.95;0.80;;;;;;;1.72;74.27;100296.38;4970858;28;20047;-85
2023/03/27 00:28:29;;;;;;;11.45;1.45;;;;;;;1.64;74.49;100301.38;4954815;28;20047;-85
2023/03/27 00:30:57;;;;;;;13.10;1.10;;;;;;;1.60;74.51;100300.47;4939161;28;20085;-88
2023/03/27 00:33:26;;;;;;;3.90;0.50;;;;;;;1.52;74.54;100308.88;4944355;28;20046;-86
2023/03/27 00:35:53;;;;;;;9.32;1.83;;;;;;;1.35;75.02;100313.66;4940554;28;20059;-86
2023/03/27 00:38:21;;;;;;;8.27;2.00;;;;;;;1.25;76.43;100323.75;4955054;28;20051;-87
2023/03/27 00:40:49;;;;;;;2.95;0.40;;;;;;;1.17;76.42;100332.13;4944289;28;20140;-87
2023/03/27 00:43:33;;;;;;;3.08;0.70;;;;;;;1.13;76.75;100336.34;4940929;28;20074;-87
2023/03/27 00:46:34;;;;;;;1.90;0.60;;;;;;;1.02;77.16;100340.34;4950731;28;20489;-87
2023/03/27 00:49:08;;;;;;;4.28;1.25;;;;;;;0.88;77.42;100334.88;4953697;28;21268;-87
2023/03/27 00:51:36;;;;;;;3.78;0.95;;;;;;;0.85;78.70;100340.81;4958718;28;20039;-87
2023/03/27 00:54:05;;;;;;;8.80;1.20;;;;;;;0.78;78.54;100346.63;4971626;28;20050;-86
2023/03/27 00:56:32;;;;;;;3.88;1.23;;;;;;;0.74;79.12;100355.97;4940010;28;20134;-86
2023/03/27 00:59:10;;;;;;;3.75;1.10;;;;;;;0.71;79.08;100358.47;4942179;28;20046;-87
2023/03/27 01:01:38;;;;;;;5.45;1.13;;;;;;;0.67;79.87;100361.81;4942121;28;20178;-87
2023/03/27 01:04:07;;;;;;;2.58;0.98;;;;;;;0.62;80.85;100364.25;4955411;28;20046;-86
2023/03/27 01:06:35;;;;;;;2.53;0.90;;;;;;;0.61;80.95;100361.63;4957521;28;20069;-87
2023/03/27 01:09:03;;;;;;;8.80;2.35;;;;;;;0.58;81.40;100365.00;4940715;28;20051;-86
2023/03/27 01:11:58;;;;;;;5.65;0.93;;;;;;;0.55;81.17;100376.91;4969945;28;20046;-87
2023/03/27 01:14:37;;;;;;;4.75;0.82;;;;;;;0.51;82.27;100378.56;4971275;28;20053;-87
2023/03/27 01:17:55;;;;;;;3.67;0.95;;;;;;;0.53;82.73;100368.28;4943875;28;20050;-86
2023/03/27 01:20:33;;;;;;;3.90;0.77;;;;;;;0.46;82.70;100370.69;4951475;28;20102;-87
2023/03/27 01:23:02;;;;;;;3.35;1.13;;;;;;;0.47;83.24;100387.91;4966823;28;20573;-88
2023/03/27 01:26:09;;;;;;;5.05;0.93;;;;;;;0.43;83.39;100383.50;4956074;28;20567;-87
2023/03/27 01:28:46;;;;;;;6.40;1.52;;;;;;;0.41;84.55;100390.28;4948147;28;20030;-87
2023/03/27 01:31:48;;;;;;;4.90;1.10;;;;;;;0.39;84.45;100384.25;4940987;28;20039;-85
2023/03/27 01:34:53;;;;;;;3.05;0.85;;;;;;;0.35;85.00;100391.84;4954984;28;20390;-87
2023/03/27 01:37:57;;;;;;;4.18;0.73;;;;;;;0.30;85.22;100396.84;4939400;28;20047;-87
2023/03/27 01:40:34;;;;;;;5.13;0.93;;;;;;;0.27;85.65;100395.03;4952867;28;20051;-88
2023/03/27 01:43:38;;;;;;;1.95;1.75;;;;;;;0.25;85.98;100406.13;4973529;28;20101;-87
2023/03/27 01:46:09;;;;;;;4.25;0.80;;;;;;;0.20;86.69;100405.16;4949464;28;20117;-88
2023/03/27 01:48:56;;;;;;;5.15;1.02;;;;;;;0.17;86.85;100411.09;4964142;28;20130;-87
2023/03/27 01:51:33;;;;;;;7.55;1.00;;;;;;;0.10;87.84;100404.00;4941317;28;20120;-87
2023/03/27 01:54:09;;;;;;;5.65;0.95;;;;;;;0.05;87.85;100409.00;4970809;28;20133;-87
2023/03/27 01:56:50;;;;;;;7.53;3.08;;;;;;;-0.01;87.76;100413.97;4952018;28;20083;-87
2023/03/27 01:59:20;;;;;;;10.15;2.08;;;;;;;-0.04;89.21;100413.88;4952934;28;20103;-87
2023/03/27 02:01:56;;;;;;;2.80;1.23;;;;;;;-0.10;89.49;100421.41;4956149;28;20061;-87
2023/03/27 02:04:36;;;;;;;9.32;0.95;;;;;;;-0.10;89.49;100416.28;4941536;28;20058;-87
2023/03/27 02:07:07;;;;;;;3.20;1.30;;;;;;;-0.12;89.74;100426.50;4937299;28;20047;-87
2023/03/27 02:09:40;;;;;;;5.20;0.95;;;;;;;-0.15;90.33;100423.84;4937048;28;20081;-86
2023/03/27 02:12:12;;;;;;;12.35;1.15;;;;;;;-0.21;90.49;100423.63;4939539;28;20101;-86
2023/03/27 02:14:45;;;;;;;2.35;0.80;;;;;;;-0.22;91.06;100439.91;4943654;28;20038;-85
2023/03/27 02:17:15;;;;;;;5.90;0.93;;;;;;;-0.21;91.82;100437.41;4959012;28;20041;-86
2023/03/27 02:19:51;;;;;;;3.03;1.10;;;;;;;-0.14;91.60;100438.47;4941951;28;20046;-87
2023/03/27 02:22:19;;;;;;;13.45;2.65;;;;;;;-0.17;91.11;100440.91;4960389;28;20055;-86
2023/03/27 02:24:45;;;;;;;7.20;1.52;;;;;;;-0.16;91.45;100450.38;4942185;28;20478;-85
2023/03/27 02:27:41;;;;;;;4.78;0.90;;;;;;;-0.19;91.98;100452.88;4956532;28;20043;-85
2023/03/27 02:30:42;;;;;;;5.13;0.80;;;;;;;-0.25;91.50;100456.13;4949843;28;20133;-86
2023/03/27 02:33:45;;;;;;;1.35;0.57;;;;;;;-0.30;93.08;100461.94;4957067;28;20070;-86
2023/03/27 02:36:19;;;;;;;2.13;0.70;;;;;;;-0.12;92.76;100462.50;4954488;28;20047;-86
2023/03/27 02:39:06;;;;;;;7.65;1.13;;;;;;;-0.13;92.01;100475.34;4960633;28;20481;-86
2023/03/27 02:41:45;;;;;;;3.92;1.00;;;;;;;-0.17;92.35;100476.94;4951911;28;20074;-85
2023/03/27 02:44:38;;;;;;;4.72;2.00;;;;;;;-0.17;92.64;100471.78;4944146;28;20051;-85
2023/03/27 02:47:16;;;;;;;7.38;1.00;;;;;;;-0.23;92.30;100474.19;4932387;28;20043;-85
2023/03/27 02:49:50;;;;;;;8.15;1.10;;;;;;;-0.29;92.26;100469.69;4956234;28;20089;-85
2023/03/27 02:52:26;;;;;;;5.68;1.10;;;;;;;-0.34;92.58;100473.81;4970437;28;20051;-86
2023/03/27 02:55:08;;;;;;;8.15;1.50;;;;;;;-0.36;92.98;100473.78;4955153;28;20081;-87
2023/03/27 02:57:38;;;;;;;6.18;1.20;;;;;;;-0.39;93.15;100481.41;4952267;28;20070;-86
2023/03/27 03:00:17;;;;;;;4.50;0.75;;;;;;;-0.43;93.57;100494.09;4940190;28;20046;-86
2023/03/27 03:02:45;;;;;;;4.03;0.82;;;;;;;-0.45;93.84;100495.75;4950912;28;20063;-87
2023/03/27 03:05:22;;;;;;;4.25;1.70;;;;;;;-0.47;94.21;100492.25;4972358;28;20042;-87
2023/03/27 03:07:49;;;;;;;4.80;1.55;;;;;;;-0.47;94.83;100492.25;4945279;28;20046;-87
2023/03/27 03:10:16;;;;;;;5.72;1.10;;;;;;;-0.51;94.89;100491.28;4953759;28;20046;-87
2023/03/27 03:12:43;;;;;;;14.02;2.47;;;;;;;-0.53;96.05;100487.78;4941723;28;20097;-87
2023/03/27 03:15:10;;;;;;;3.88;1.23;;;;;;;-0.54;96.01;100502.31;4955415;28;20043;-88
2023/03/27 03:17:37;;;;;;;10.57;1.30;;;;;;;-0.54;96.97;100501.47;4937874;28;20046;-87
2023/03/27 03:20:06;;;;;;;4.75;1.38;;;;;;;-0.58;96.63;100507.34;4957620;28;20050;-87
2023/03/27 03:22:34;;;;;;;4.22;1.13;;;;;;;-0.64;96.90;100507.13;4940824;28;20051;-86
2023/03/27 03:25:02;;;;;;;5.60;1.20;;;;;;;-0.70;97.95;100506.09;4935930;28;20070;-86
2023/03/27 03:27:30;;;;;;;5.43;1.73;;;;;;;-0.70;98.84;100513.78;4934713;28;20498;-87
2023/03/27 03:29:56;;;;;;;4.65;0.82;;;;;;;-0.71;98.64;100509.47;4952275;28;20051;-87
2023/03/27 03:32:23;;;;;;;4.95;1.27;;;;;;;-0.74;99.08;100523.94;4923384;28;20043;-87
2023/03/27 03:34:49;;;;;;;5.05;0.90;;;;;;;-0.78;99.24;100525.50;4922749;28;20058;-85
2023/03/27 03:37:16;;;;;;;5.25;1.15;;;;;;;-0.79;99.81;100528.91;4934492;29;20047;-86
2023/03/27 03:39:42;;;;;;;7.50;1.55;;;;;;;-0.79;100.00;100535.75;4923470;29;20067;-85
2023/03/27 03:42:10;;;;;;;9.10;1.58;;;;;;;-0.79;100.00;100534.03;4947035;28;20470;-87
2023/03/27 03:44:37;;;;;;;6.68;1.45;;;;;;;-0.71;100.00;100548.03;4924303;28;20135;-85
2023/03/27 03:47:04;;;;;;;4.55;0.93;;;;;;;-0.64;100.00;100543.09;4923533;29;20043;-85
2023/03/27 03:49:30;;;;;;;7.03;1.42;;;;;;;-0.55;100.00;100546.00;4921421;29;20043;-85
2023/03/27 03:52:00;;;;;;;9.35;1.45;;;;;;;-0.51;100.00;100546.16;4922104;29;20047;-85
2023/03/27 03:54:31;;;;;;;9.68;1.92;;;;;;;-0.45;100.00;100547.19;4920386;29;20051;-86
2023/03/27 03:56:57;;;;;;;6.35;1.10;;;;;;;-0.49;99.80;100555.63;4938527;28;20048;-88
2023/03/27 03:59:28;;;;;;;6.75;1.75;;;;;;;-0.54;100.00;100553.75;4941575;28;20117;-88
2023/03/27 04:01:54;;;;;;;11.60;2.92;;;;;;;-0.58;100.00;100551.03;4941406;29;20106;-85
2023/03/27 04:04:21;;;;;;;4.60;1.20;;;;;;;-0.69;100.00;100551.53;4940062;29;20569;-87
2023/03/27 04:06:47;;;;;;;9.82;1.63;;;;;;;-0.77;100.00;100560.69;4958002;28;20490;-85
2023/03/27 04:09:14;;;;;;;7.10;1.13;;;;;;;-0.80;100.00;100570.84;4943022;28;20071;-86
2023/03/27 04:11:41;;;;;;;8.90;1.42;;;;;;;-0.85;100.00;100570.69;4938045;29;20046;-86
2023/03/27 04:14:07;;;;;;;5.50;1.27;;;;;;;-0.89;100.00;100562.81;4942607;28;20095;-86
2023/03/27 04:16:34;;;;;;;6.00;1.85;;;;;;;-0.96;100.00;100574.56;4921502;29;20198;-85
2023/03/27 04:19:01;;;;;;;9.05;2.08;;;;;;;-1.00;100.00;100570.13;4936574;29;20071;-86
2023/03/27 04:21:28;;;;;;;4.72;1.40;;;;;;;-0.99;100.00;100579.59;4938258;29;20071;-86
2023/03/27 04:24:01;;;;;;;4.60;1.52;;;;;;;-0.93;100.00;100578.94;4947993;28;20054;-85
2023/03/27 04:26:28;;;;;;;16.70;1.85;;;;;;;-0.70;100.00;100584.91;4941508;28;20449;-86
2023/03/27 04:28:55;;;;;;;10.60;1.92;;;;;;;-0.54;100.00;100587.19;4940037;28;20111;-86
2023/03/27 04:31:21;;;;;;;3.40;1.05;;;;;;;-0.57;100.00;100592.22;4938507;28;20039;-85
2023/03/27 04:33:50;;;;;;;2.97;1.50;;;;;;;-0.55;100.00;100597.41;4956624;28;20083;-86
2023/03/27 04:36:18;;;;;;;14.07;1.25;;;;;;;-0.48;100.00;100606.22;4953006;28;20054;-87
2023/03/27 04:38:46;;;;;;;7.32;1.70;;;;;;;-0.46;100.00;100599.44;4942097;28;20058;-87
2023/03/27 04:41:20;;;;;;;8.30;1.27;;;;;;;-0.50;100.00;100606.16;4953213;28;20488;-85
2023/03/27 04:43:46;;;;;;;5.18;1.38;;;;;;;-0.59;100.00;100618.69;4958057;28;20051;-86
2023/03/27 04:46:13;;;;;;;4.38;1.20;;;;;;;-0.71;100.00;100619.13;4953614;28;20061;-86
2023/03/27 04:48:39;;;;;;;5.65;1.02;;;;;;;-0.78;100.00;100625.75;4939889;28;20367;-86
2023/03/27 04:51:08;;;;;;;7.63;2.05;;;;;;;-0.85;100.00;100623.78;4952957;28;20085;-85
2023/03/27 04:53:36;;;;;;;4.93;1.67;;;;;;;-0.88;100.00;100626.22;4935077;28;20047;-85
2023/03/27 04:56:05;;;;;;;6.43;1.65;;;;;;;-0.80;100.00;100631.66;4939404;28;20059;-88
2023/03/27 04:58:32;;;;;;;4.47;0.93;;;;;;;-0.78;100.00;100636.03;4944293;28;20450;-86
2023/03/27 05:01:01;;;;;;;2.67;1.23;;;;;;;-0.81;100.00;100635.91;4941555;28;20081;-86
2023/03/27 05:03:28;;;;;;;1.58;0.88;;;;;;;-0.85;100.00;100636.63;4938582;28;20050;-85
2023/03/27 05:05:55;;;;;;;5.55;2.35;;;;;;;-0.92;100.00;100643.22;4954138;28;20074;-87
2023/03/27 05:08:21;;;;;;;5.63;1.20;;;;;;;-0.92;100.00;100642.38;4955614;28;20043;-87
2023/03/27 05:10:49;;;;;;;5.30;1.70;;;;;;;-0.97;100.00;100649.03;4940414;28;20062;-87
2023/03/27 05:13:16;;;;;;;8.82;1.40;;;;;;;-1.02;100.00;100647.16;4953199;28;20047;-87
2023/03/27 05:15:42;;;;;;;11.70;3.03;;;;;;;-1.04;100.00;100653.91;4935984;28;20050;-87
2023/03/27 05:18:09;;;;;;;5.43;1.48;;;;;;;-1.05;100.00;100653.88;4956911;28;20042;-88
2023/03/27 05:20:37;;;;;;;5.45;1.65;;;;;;;-1.12;100.00;100649.31;4957344;28;20565;-87
2023/03/27 05:23:04;;;;;;;4.70;1.88;;;;;;;-1.09;100.00;100660.56;4948702;28;20073;-87
2023/03/27 05:25:32;;;;;;;8.93;1.80;;;;;;;-1.12;100.00;100659.56;4941294;28;20047;-87
2023/03/27 05:27:59;;;;;;;5.05;1.55;;;;;;;-1.08;100.00;100667.47;4952273;28;20050;-87
2023/03/27 05:30:26;;;;;;;6.55;1.38;;;;;;;-1.07;100.00;100668.34;4952057;28;20057;-87
2023/03/27 05:32:53;;;;;;;7.60;1.45;;;;;;;-1.04;100.00;100665.91;4963347;28;20145;-87
2023/03/27 05:35:23;;;;;;;3.00;0.80;;;;;;;-1.03;100.00;100676.22;4961363;28;20046;-87
2023/03/27 05:37:53;;;;;;;7.22;1.55;;;;;;;-1.06;100.00;100676.09;4960581;28;20105;-86
2023/03/27 05:40:23;;;;;;;8.63;1.25;;;;;;;-1.06;100.00;100691.50;4944384;28;20046;-87
2023/03/27 05:42:52;;;;;;;7.88;1.65;;;;;;;-1.02;100.00;100682.25;4942249;28;20046;-87
2023/03/27 05:45:18;;;;;;;9.52;1.33;;;;;;;-1.00;100.00;100688.31;4943160;28;20050;-86
2023/03/27 05:47:54;;;;;;;6.90;1.52;;;;;;;-0.98;100.00;100696.09;4947473;28;20049;-87
2023/03/27 05:50:25;;;;;;;3.88;1.60;;;;;;;-0.96;100.00;100695.31;4944872;28;20059;-86
2023/03/27 05:53:01;;;;;;;11.18;1.67;;;;;;;-0.86;100.00;100699.09;4944668;28;20065;-87
2023/03/27 05:55:28;;;;;;;6.13;1.60;;;;;;;-0.78;100.00;100692.59;4952414;28;20051;-87
2023/03/27 05:57:58;;;;;;;3.33;1.13;;;;;;;-0.76;100.00;100697.78;4945244;28;20043;-86
2023/03/27 06:00:26;;;;;;;9.68;1.63;;;;;;;-0.75;100.00;100694.41;4943015;28;20081;-86
2023/03/27 06:02:58;;;;;;;4.65;1.25;;;;;;;-0.71;100.00;100707.41;4944760;28;20062;-85
2023/03/27 06:05:28;;;;;;;5.18;1.75;;;;;;;-0.63;100.00;100701.69;4945898;28;20050;-86
2023/03/27 06:07:57;;;;;;;9.32;1.77;;;;;;;-0.52;100.00;100710.69;4944191;28;20043;-85
2023/03/27 06:10:23;;;;;;;5.03;1.73;;;;;;;-0.46;100.00;100716.03;4942551;28;20054;-86
2023/03/27 06:13:03;;;;;;;14.45;2.10;;;;;;;-0.48;100.00;100722.84;4956198;28;20051;-86
2023/03/27 06:15:31;;;;;;;4.32;1.85;;;;;;;-0.47;100.00;100724.59;4956062;28;20047;-89
2023/03/27 06:17:58;;;;;;;5.18;1.15;;;;;;;-0.40;100.00;100725.69;4942329;28;20370;-86
2023/03/27 06:20:26;;;;;;;5.07;1.05;;;;;;;-0.30;100.00;100730.34;4941855;28;20393;-86
2023/03/27 06:22:55;;;;;;;9.90;1.58;;;;;;;-0.05;100.00;100724.38;4939599;28;20058;-88
2023/03/27 06:25:24;;;;;;;8.75;1.80;;;;;;;0.29;100.00;100715.25;4942759;28;20098;-88
2023/03/27 06:27:51;;;;;;;8.75;1.60;;;;;;;0.35;99.99;100716.28;4964222;28;20056;-86
2023/03/27 06:30:24;;;;;;;5.13;1.20;;;;;;;0.25;99.45;100722.78;4934530;28;20051;-87
2023/03/27 06:32:59;;;;;;;2.22;1.30;;;;;;;0.12;100.00;100731.81;4938295;28;20055;-88
2023/03/27 06:35:29;;;;;;;3.60;1.08;;;;;;;0.01;100.00;100734.00;4941089;28;20138;-88
2023/03/27 06:37:57;;;;;;;6.60;1.63;;;;;;;-0.06;100.00;100738.06;4957085;28;20051;-87
2023/03/27 06:40:27;;;;;;;2.70;1.20;;;;;;;-0.03;100.00;100748.50;4953574;28;20375;-86
2023/03/27 06:43:08;;;;;;;6.10;1.58;;;;;;;0.06;100.00;100741.91;4941685;28;20043;-88
2023/03/27 06:45:45;;;;;;;6.03;1.35;;;;;;;0.19;100.00;100750.94;4941966;28;20051;-87
2023/03/27 06:48:13;;;;;;;6.20;1.20;;;;;;;0.30;100.00;100750.47;4970022;28;20046;-86
2023/03/27 06:50:40;;;;;;;7.70;1.48;;;;;;;0.40;100.00;100758.50;4938797;28;20138;-87
2023/03/27 06:53:07;;;;;;;8.30;1.67;;;;;;;1.02;99.82;100756.25;4937466;28;20129;-86
2023/03/27 06:55:34;;;;;;;8.10;1.50;;;;;;;1.71;96.58;100764.31;4941928;28;20058;-87
2023/03/27 06:58:02;;;;;;;3.70;0.82;;;;;;;2.29;92.96;100762.47;4954929;28;20075;-85
2023/03/27 07:00:36;;;;;;;3.80;1.23;;;;;;;2.79;90.49;100765.50;4961307;28;20046;-87
2023/03/27 07:03:07;;;;;;;4.93;1.38;;;;;;;3.24;87.58;100766.53;4958364;28;20046;-87
2023/03/27 07:05:36;;;;;;;4.93;1.98;;;;;;;3.54;86.84;100764.59;4935320;28;20051;-86
2023/03/27 07:08:11;;;;;;;6.93;1.80;;;;;;;3.88;84.03;100779.09;4958474;28;20055;-85
2023/03/27 07:10:38;;;;;;;5.07;1.63;;;;;;;4.05;82.74;100779.44;4963088;28;20142;-86
2023/03/27 07:13:05;;;;;;;2.63;1.63;;;;;;;4.28;81.97;100777.31;4960170;28;20121;-86
2023/03/27 07:15:32;;;;;;;4.15;1.35;;;;;;;4.38;80.74;100780.97;4970966;28;20446;-87
2023/03/27 07:18:22;;;;;;;6.53;1.52;;;;;;;4.11;82.26;100782.16;4962543;28;20049;-87
2023/03/27 07:20:49;;;;;;;10.43;0.90;;;;;;;4.26;81.66;100786.78;4975399;28;20490;-86
2023/03/27 07:23:16;;;;;;;4.55;1.05;;;;;;;4.67;80.39;100787.47;4942959;28;20051;-87
2023/03/27 07:25:43;;;;;;;9.02;1.30;;;;;;;5.10;77.80;100789.09;4943405;28;20211;-88
2023/03/27 07:28:15;;;;;;;4.50;1.90;;;;;;;5.57;77.37;100789.75;4944232;28;20113;-88
2023/03/27 07:30:42;;;;;;;7.30;1.60;;;;;;;5.95;73.99;100794.56;4947388;28;20142;-87
2023/03/27 07:33:09;;;;;;;3.05;1.25;;;;;;;6.25;73.16;100803.63;4960281;28;20042;-87
2023/03/27 07:35:43;;;;;;;2.33;1.35;;;;;;;6.44;72.55;100796.88;4942103;28;20043;-88
2023/03/27 07:38:10;;;;;;;5.55;1.25;;;;;;;6.71;70.09;100798.00;4963396;28;20527;-88
2023/03/27 07:40:37;;;;;;;7.30;1.45;;;;;;;6.26;71.09;100798.44;4962853;28;20069;-86
2023/03/27 07:43:05;;;;;;;3.78;1.30;;;;;;;6.00;73.08;100800.75;4960699;28;20103;-88
2023/03/27 07:45:33;;;;;;;1.52;1.00;;;;;;;5.46;74.41;100806.06;4944865;28;20054;-87
2023/03/27 07:48:09;;;;;;;4.93;1.55;;;;;;;5.62;75.13;100808.88;4979017;28;20047;-88
2023/03/27 07:50:36;;;;;;;5.13;1.23;;;;;;;6.41;72.80;100812.47;4959292;28;20051;-88
2023/03/27 07:53:05;;;;;;;4.28;1.33;;;;;;;7.02;69.80;100811.31;4961699;28;20074;-89
2023/03/27 07:55:32;;;;;;;8.32;1.58;;;;;;;7.57;66.66;100800.38;4946686;28;20054;-85
2023/03/27 07:57:58;;;;;;;5.25;1.67;;;;;;;7.39;66.99;100809.84;4958472;28;20047;-87
2023/03/27 08:00:26;;;;;;;7.20;1.00;;;;;;;7.61;65.36;100809.97;4957605;28;20046;-87
2023/03/27 08:02:53;;;;;;;5.10;2.30;;;;;;;8.11;64.92;100813.69;4963250;28;20467;-87
2023/03/27 08:05:19;;;;;;;2.83;1.70;;;;;;;8.53;62.02;100809.47;4944600;28;20145;-87
2023/03/27 08:07:46;;;;;;;3.85;0.82;;;;;;;8.94;60.18;100807.78;4944864;28;20047;-88
2023/03/27 08:10:14;;;;;;;6.45;1.25;;;;;;;9.77;58.89;100810.28;4941182;28;20102;-88
2023/03/27 08:12:41;;;;;;;4.50;1.20;;;;;;;10.41;54.40;100807.41;4945015;28;20119;-88
2023/03/27 08:15:09;;;;;;;3.83;0.98;;;;;;;9.50;55.54;100821.66;4941851;28;20023;-87
2023/03/27 08:17:38;;;;;;;6.15;1.27;;;;;;;8.47;58.71;100816.44;4956983;28;20512;-87
2023/03/27 08:20:07;;;;;;;2.58;1.17;;;;;;;7.95;60.61;100820.56;4946443;28;20480;-87
2023/03/27 08:22:38;;;;;;;5.65;1.30;;;;;;;7.50;61.83;100824.69;4939595;28;20121;-86
2023/03/27 08:25:08;;;;;;;2.92;0.95;;;;;;;7.97;60.99;100825.81;4959247;28;20059;-88
2023/03/27 08:27:38;;;;;;;4.57;1.23;;;;;;;8.68;58.21;100823.44;4950879;28;20055;-87
2023/03/27 08:30:06;;;;;;;5.22;1.65;;;;;;;9.13;56.48;100818.25;4951514;28;20063;-87
2023/03/27 08:32:32;;;;;;;5.93;1.38;;;;;;;9.08;56.31;100813.00;4943568;28;20057;-88
2023/03/27 08:34:59;;;;;;;4.85;1.70;;;;;;;8.74;56.05;100818.22;4976757;28;20101;-88
2023/03/27 08:37:26;;;;;;;6.60;1.63;;;;;;;8.18;58.04;100825.00;4961031;28;20059;-87
2023/03/27 08:39:57;;;;;;;8.82;1.45;;;;;;;7.37;60.30;100829.78;4944013;28;20046;-88
2023/03/27 08:42:36;;;;;;;12.45;1.92;;;;;;;6.86;62.45;100831.13;4946737;28;20047;-86
2023/03/27 08:45:23;;;;;;;3.72;1.38;;;;;;;6.13;64.81;100835.56;4943155;28;20169;-87
2023/03/27 08:48:12;;;;;;;6.18;1.58;;;;;;;5.72;66.67;100839.31;4958078;28;20417;-88
2023/03/27 08:51:04;;;;;;;7.85;1.48;;;;;;;5.57;67.09;100841.69;4960311;28;20125;-88
2023/03/27 08:53:42;;;;;;;7.40;1.40;;;;;;;7.08;63.29;100840.84;4946657;28;20077;-87
2023/03/27 08:56:15;;;;;;;5.82;1.40;;;;;;;8.83;56.93;100838.25;4947245;28;20043;-87
2023/03/27 08:58:43;;;;;;;;;;;;;;;8.92;54.97;100831.28;4947854;28;20042;-88
2023/03/27 09:01:28;;;;;;;6.32;2.15;;;;;;;9.69;53.41;100834.72;4957884;28;20113;-89
2023/03/27 09:04:21;;;;;;;5.13;1.00;;;;;;;11.02;48.88;100842.78;4974909;28;20733;-89
2023/03/27 09:07:11;;;;;;;2.42;0.80;;;;;;;10.70;48.43;100848.25;4944766;28;20078;-90
2023/03/27 09:09:41;;;;;;;3.45;0.95;;;;;;;10.05;49.31;100849.44;4955523;28;20054;-88
2023/03/27 09:12:23;;;;;;;5.10;0.80;;;;;;;8.86;52.25;100856.53;4970905;28;20395;-88
2023/03/27 09:15:03;;;;;;;4.10;1.20;;;;;;;7.88;55.26;100860.50;4958174;28;20051;-87
2023/03/27 09:18:03;;;;;;;7.25;1.25;;;;;;;7.96;56.23;100856.19;4940539;28;20153;-88
2023/03/27 09:20:43;;;;;;;3.40;1.15;;;;;;;9.16;53.14;100845.22;4945590;28;20055;-86
2023/03/27 09:23:34;;;;;;;2.05;0.80;;;;;;;9.27;50.57;100848.69;4939517;28;20076;-86
2023/03/27 09:26:27;;;;;;;3.15;1.13;;;;;;;8.53;51.72;100858.19;4927634;28;20138;-85
2023/03/27 09:29:00;;;;;;;4.03;1.45;;;;;;;9.09;51.94;100849.56;4935404;28;20070;-88
2023/03/27 09:31:33;;;;;;;4.13;1.20;;;;;;;9.64;49.50;100862.63;4936078;28;20039;-86
2023/03/27 09:34:10;;;;;;;3.75;1.25;;;;;;;9.60;49.58;100853.91;4924076;28;20051;-89
2023/03/27 09:36:37;;;;;;;5.22;1.40;;;;;;;9.29;50.40;100861.75;4906457;28;20117;-88
2023/03/27 09:39:08;;;;;;;5.72;0.90;;;;;;;8.71;51.28;100868.69;4942778;28;20094;-87
2023/03/27 09:41:42;;;;;;;4.70;0.73;;;;;;;8.60;51.46;100863.44;4943019;28;20099;-87
2023/03/27 09:44:19;;;;;;;4.35;1.00;;;;;;;8.11;52.36;100871.91;4926040;28;20138;-87
2023/03/27 09:46:53;;;;;;;9.10;1.58;;;;;;;7.56;53.91;100868.97;4921620;28;20051;-86
2023/03/27 09:49:20;;;;;;;;;;;;;;;7.63;53.55;100873.38;4952640;28;20219;-89
2023/03/27 09:51:53;;;;;;;3.30;0.77;;;;;;;7.68;51.69;100876.91;4931483;28;20406;-87
2023/03/27 09:54:25;;;;;;;5.13;0.75;;;;;;;7.47;52.86;100874.13;4924083;28;20050;-88
2023/03/27 09:56:58;;;;;;;4.43;0.77;;;;;;;7.18;54.24;100872.16;4942405;28;20153;-88
2023/03/27 09:59:39;;;;;;;3.30;0.70;;;;;;;6.89;55.22;100880.59;4922889;28;20169;-86
2023/03/27 10:02:29;;;;;;;4.10;0.68;;;;;;;6.67;56.02;100876.91;4939351;28;20042;-88
2023/03/27 10:05:11;;;;;;;2.42;0.85;;;;;;;6.49;56.84;100881.03;4936754;28;20055;-86
2023/03/27 10:07:39;;;;;;;4.50;1.08;;;;;;;6.41;56.76;100880.97;4918423;28;20054;-88
2023/03/27 10:10:26;;;;;;;4.10;0.80;;;;;;;6.36;56.98;100881.75;4924148;28;20135;-86
2023/03/27 10:12:57;;;;;;;3.13;0.70;;;;;;;6.35;57.03;100877.38;4925917;28;20051;-86
2023/03/27 10:15:39;;;;;;;3.47;1.02;;;;;;;6.39;57.39;100869.66;4931649;28;20509;-87
2023/03/27 10:18:22;;;;;;;3.95;1.10;;;;;;;6.26;58.03;100883.38;4923742;28;20159;-89
2023/03/27 10:20:52;;;;;;;3.90;1.33;;;;;;;6.03;59.80;100881.31;4921222;28;20188;-86
2023/03/27 10:23:29;;;;;;;2.33;0.82;;;;;;;5.83;63.31;100896.63;4952922;28;20321;-87
2023/03/27 10:26:00;;;;;;;2.50;0.60;;;;;;;5.54;66.03;100888.38;4931009;29;20062;-86
2023/03/27 10:28:37;;;;;;;5.20;1.00;;;;;;;5.44;67.81;100890.84;4945863;28;20035;-87
2023/03/27 10:31:09;;;;;;;2.50;0.93;;;;;;;5.57;69.96;100891.91;4932327;29;20071;-87
2023/03/27 10:33:41;;;;;;;5.68;0.82;;;;;;;5.95;68.71;100890.72;4951501;28;20510;-88
2023/03/27 10:36:10;;;;;;;5.25;1.00;;;;;;;6.48;64.80;100887.09;4949437;28;20061;-88
2023/03/27 10:38:42;;;;;;;3.13;0.95;;;;;;;8.46;61.53;100883.41;4948805;28;20516;-84
2023/03/27 10:41:21;;;;;;;4.82;0.85;;;;;;;10.73;53.83;100879.66;4944609;28;20055;-86
2023/03/27 10:43:54;;;;;;;3.38;0.68;;;;;;;11.00;51.05;100886.47;4945025;28;20051;-88
2023/03/27 10:46:28;;;;;;;1.80;1.13;;;;;;;10.59;49.43;100872.75;4947326;28;20155;-87
2023/03/27 10:49:07;;;;;;;4.38;1.00;;;;;;;9.52;51.34;100885.25;4946684;28;20406;-86
2023/03/27 10:51:57;;;;;;;1.92;0.57;;;;;;;8.34;53.74;100891.13;4931053;29;20135;-88
2023/03/27 10:54:53;;;;;;;1.30;0.65;;;;;;;8.69;54.11;100890.41;4945196;28;20047;-86
2023/03/27 10:57:26;;;;;;;4.43;0.90;;;;;;;10.69;49.55;100911.97;4946149;28;20146;-87
2023/03/27 11:00:22;;;;;;;2.92;1.48;;;;;;;11.82;48.13;100916.38;4947133;28;20054;-86
2023/03/27 11:03:13;;;;;;;22.88;2.05;;;;;;;11.11;50.34;100928.31;4948744;28;20062;-87
2023/03/27 11:05:45;;;;;;;0.85;0.32;;;;;;;9.08;55.70;100949.66;4930471;28;20054;-86
2023/03/27 11:08:48;;;;;;;1.08;0.45;;;;;;;7.36;62.54;100952.19;4948835;28;20075;-85
2023/03/27 11:11:41;;;;;;;3.63;0.70;;;;;;;6.03;69.81;100943.69;4930492;29;20055;-88
2023/03/27 11:14:29;;;;;;;1.38;0.40;;;;;;;5.60;74.11;100937.81;4933294;29;20043;-86
2023/03/27 11:17:02;;;;;;;7.53;0.77;;;;;;;5.28;73.69;100943.38;4932224;29;20042;-87
2023/03/27 11:19:45;;;;;;;1.48;0.47;;;;;;;5.01;74.17;100942.00;4946847;28;20055;-86
2023/03/27 11:22:35;;;;;;;1.40;0.40;;;;;;;7.09;71.27;100949.34;4948640;28;20035;-88
2023/03/27 11:25:22;;;;;;;0.93;0.50;;;;;;;9.16;60.72;100949.69;4937527;28;20051;-87
2023/03/27 11:28:11;;;;;;;3.03;0.25;;;;;;;8.87;56.99;100949.63;4957472;28;20148;-87
2023/03/27 11:30:48;;;;;;;4.35;1.15;;;;;;;7.92;59.09;100969.13;4972923;28;20055;-87
2023/03/27 11:33:51;;;;;;;4.05;0.82;;;;;;;6.72;62.52;100966.28;4972626;28;20753;-88
2023/03/27 11:36:33;;;;;;;0.88;0.63;;;;;;;6.08;65.93;100969.78;4927958;28;20212;-88
2023/03/27 11:39:18;;;;;;;1.27;0.70;;;;;;;5.72;67.43;100974.41;4933253;28;20135;-86
2023/03/27 11:41:52;;;;;;;3.58;0.50;;;;;;;7.05;64.96;100967.50;4955126;28;20077;-88
2023/03/27 11:44:20;;;;;;;0.90;0.30;;;;;;;9.59;57.14;100946.25;4946043;28;20133;-87
2023/03/27 11:47:14;;;;;;;1.65;0.52;;;;;;;10.85;51.40;100963.38;4943859;28;20081;-87
2023/03/27 11:50:00;;;;;;;1.25;0.65;;;;;;;11.88;49.43;100955.66;4978326;28;20046;-87
2023/03/27 11:52:59;;;;;;;2.25;0.80;;;;;;;13.53;46.51;100944.81;4963306;28;20053;-87
2023/03/27 11:55:36;;;;;;;0.77;0.25;;;;;;;15.07;41.62;100940.09;4958558;28;20901;-86
2023/03/27 11:58:20;;;;;;;3.35;0.40;;;;;;;15.62;39.12;100938.75;4945922;28;20127;-88